Time;durP1;ratioP1;P1;durP2;ratioP2;P2;SDS_P1;SDS_P2;PMS_P1;PMS_P2;Temp;Humidity;BMP_temperature;BMP_pressure;BME280_temperature;BME280_humidity;BME280_pressure;Samples;Min_cycle;Max_cycle;Signal;HPM_P1;HPM_P2
2021/04/22 00:02:06;;;;;;;9.45;2.20;;;;;;;7.15;35.25;101841.75;8030599;28;20075;-64
2021/04/22 00:05:57;;;;;;;10.13;1.85;;;;;;;7.13;35.31;101842.75;8031844;28;20040;-65
2021/04/22 00:09:49;;;;;;;5.45;1.48;;;;;;;7.08;35.31;101853.34;8017469;28;20050;-65
2021/04/22 00:13:40;;;;;;;15.40;2.28;;;;;;;6.99;35.19;101841.47;8023733;28;20037;-64
2021/04/22 00:17:31;;;;;;;8.18;1.90;;;;;;;6.98;35.18;101852.81;8031784;28;20040;-64
2021/04/22 00:21:22;;;;;;;5.70;1.58;;;;;;;6.93;35.42;101854.72;8025278;28;20572;-64
2021/04/22 00:25:13;;;;;;;8.07;1.98;;;;;;;6.89;35.34;101850.53;8031830;28;20032;-64
2021/04/22 00:29:04;;;;;;;8.63;1.90;;;;;;;6.83;35.32;101849.91;8038167;28;20071;-64
2021/04/22 00:32:54;;;;;;;7.72;1.73;;;;;;;6.77;35.51;101857.94;8035228;28;20036;-64
2021/04/22 00:36:45;;;;;;;6.00;1.98;;;;;;;6.73;35.66;101865.03;8034690;28;20108;-64
2021/04/22 00:40:37;;;;;;;9.40;1.73;;;;;;;6.68;35.69;101873.91;8034942;28;20040;-64
2021/04/22 00:44:28;;;;;;;4.13;1.60;;;;;;;6.63;35.66;101867.97;8032773;28;20068;-64
2021/04/22 00:48:23;;;;;;;5.15;2.10;;;;;;;6.56;35.76;101878.63;8030732;28;20033;-64
2021/04/22 00:52:22;;;;;;;3.50;1.42;;;;;;;6.48;35.96;101871.94;8025461;28;20568;-64
2021/04/22 00:56:13;;;;;;;6.45;1.65;;;;;;;6.45;35.92;101879.88;8026899;28;20109;-64
2021/04/22 01:00:09;;;;;;;9.70;1.95;;;;;;;6.39;35.72;101885.28;8025049;28;20742;-64
2021/04/22 01:04:01;;;;;;;9.05;1.85;;;;;;;6.32;35.89;101881.19;8022699;28;20044;-64
2021/04/22 01:07:51;;;;;;;10.68;2.92;;;;;;;6.22;35.87;101872.81;8037763;28;20032;-64
2021/04/22 01:11:42;;;;;;;8.73;2.10;;;;;;;6.19;36.09;101888.53;8036531;28;20029;-64
2021/04/22 01:15:33;;;;;;;9.23;1.92;;;;;;;6.13;35.86;101885.28;8035514;28;20036;-64
2021/04/22 01:19:24;;;;;;;10.27;2.70;;;;;;;6.07;36.02;101889.78;8033996;28;20538;-64
2021/04/22 01:23:15;;;;;;;11.77;2.95;;;;;;;6.00;36.36;101890.88;8032462;28;20051;-64
2021/04/22 01:27:07;;;;;;;5.22;1.50;;;;;;;5.93;35.98;101884.13;8029013;28;20095;-64
2021/04/22 01:30:58;;;;;;;12.77;2.38;;;;;;;5.88;36.07;101891.28;8027338;28;20093;-64
2021/04/22 01:34:48;;;;;;;6.00;1.92;;;;;;;5.82;36.13;101882.75;8022823;28;20036;-64
2021/04/22 01:38:40;;;;;;;10.90;1.67;;;;;;;5.74;36.25;101889.97;8026767;28;20036;-64
2021/04/22 01:42:30;;;;;;;4.10;1.52;;;;;;;5.68;36.31;101898.84;8024350;28;20063;-64
2021/04/22 01:46:22;;;;;;;9.18;2.30;;;;;;;5.63;36.38;101895.50;8030073;28;20028;-64
2021/04/22 01:50:17;;;;;;;8.98;2.08;;;;;;;5.57;36.59;101908.69;8036846;28;20059;-64
2021/04/22 01:54:08;;;;;;;4.70;1.88;;;;;;;5.51;36.22;101898.47;8034785;28;20036;-64
2021/04/22 01:57:59;;;;;;;5.28;1.60;;;;;;;5.45;36.43;101903.84;8032816;28;20120;-64
2021/04/22 02:01:50;;;;;;;12.73;2.38;;;;;;;5.40;36.69;101905.72;8029095;28;20145;-64
2021/04/22 02:05:40;;;;;;;7.32;1.80;;;;;;;5.34;36.52;101901.56;8030304;28;20446;-64
2021/04/22 02:09:32;;;;;;;6.57;1.70;;;;;;;5.29;36.67;101907.78;8028159;28;20029;-64
2021/04/22 02:13:24;;;;;;;7.45;1.95;;;;;;;5.24;36.77;101918.31;8027053;28;20500;-64
2021/04/22 02:17:14;;;;;;;9.20;2.22;;;;;;;5.18;36.78;101921.09;8025759;28;20037;-64
2021/04/22 02:21:05;;;;;;;8.98;1.85;;;;;;;5.12;36.71;101927.28;8025244;28;20712;-64
2021/04/22 02:24:55;;;;;;;4.30;1.50;;;;;;;5.07;36.96;101933.50;8024891;28;20115;-64
2021/04/22 02:28:46;;;;;;;7.72;1.73;;;;;;;5.04;37.10;101938.81;8022865;28;20037;-64
2021/04/22 02:32:37;;;;;;;9.40;1.60;;;;;;;4.99;37.02;101936.31;8031197;28;20136;-64
2021/04/22 02:36:28;;;;;;;5.95;1.52;;;;;;;4.94;37.19;101940.78;8034804;28;20039;-64
2021/04/22 02:40:22;;;;;;;9.85;1.90;;;;;;;4.90;37.30;101943.50;8035649;28;20036;-64
2021/04/22 02:44:13;;;;;;;6.72;2.15;;;;;;;4.86;37.27;101944.47;8025408;28;20029;-64
2021/04/22 02:48:05;;;;;;;4.45;1.73;;;;;;;4.83;37.38;101947.16;8030596;28;20032;-64
2021/04/22 02:51:55;;;;;;;4.95;1.60;;;;;;;4.78;37.15;101954.22;8026794;28;20045;-64
2021/04/22 02:55:46;;;;;;;3.45;1.13;;;;;;;4.71;37.38;101949.19;8034556;28;20424;-64
2021/04/22 02:59:37;;;;;;;7.75;1.77;;;;;;;4.69;37.36;101947.50;8026442;28;20516;-64
2021/04/22 03:03:27;;;;;;;9.07;2.00;;;;;;;4.62;37.27;101943.34;8034238;28;20051;-64
2021/04/22 03:07:18;;;;;;;7.07;1.95;;;;;;;4.60;37.65;101943.41;8029021;28;20028;-64
2021/04/22 03:11:12;;;;;;;5.47;1.50;;;;;;;4.57;37.63;101953.00;8034525;28;20127;-64
2021/04/22 03:15:04;;;;;;;7.38;1.73;;;;;;;4.52;37.71;101947.94;8041318;28;20516;-64
2021/04/22 03:18:55;;;;;;;9.75;2.55;;;;;;;4.47;37.83;101957.59;8039052;28;20059;-64
2021/04/22 03:22:47;;;;;;;10.00;2.10;;;;;;;4.43;37.97;101952.50;8037225;28;20136;-64
2021/04/22 03:26:37;;;;;;;6.90;1.88;;;;;;;4.37;37.76;101952.63;8037019;28;20028;-64
2021/04/22 03:30:30;;;;;;;14.18;1.92;;;;;;;4.34;37.95;101956.16;8036069;28;20050;-64
2021/04/22 03:34:21;;;;;;;6.35;1.83;;;;;;;4.28;38.06;101957.13;8034639;28;20055;-64
2021/04/22 03:38:12;;;;;;;11.50;1.95;;;;;;;4.24;38.23;101965.91;8030341;28;20039;-64
2021/04/22 03:42:03;;;;;;;9.90;1.73;;;;;;;4.21;38.22;101968.59;8029711;28;20397;-64
2021/04/22 03:45:53;;;;;;;3.80;2.03;;;;;;;4.18;38.04;101960.00;8026109;28;20041;-64
2021/04/22 03:49:44;;;;;;;5.43;1.95;;;;;;;4.09;38.13;101961.06;8025444;28;20051;-64
2021/04/22 03:53:35;;;;;;;7.72;2.17;;;;;;;4.09;38.08;101974.06;8032539;28;20198;-64
2021/04/22 03:57:26;;;;;;;8.90;2.33;;;;;;;4.04;38.30;101973.28;8040304;28;20063;-64
2021/04/22 04:01:16;;;;;;;10.38;2.38;;;;;;;4.01;38.25;101975.09;8030991;28;20442;-66
2021/04/22 04:05:09;;;;;;;9.95;1.77;;;;;;;3.98;38.42;101986.44;8037075;28;20051;-64
2021/04/22 04:09:00;;;;;;;7.80;2.47;;;;;;;3.92;38.68;101976.16;8034770;28;20502;-65
2021/04/22 04:12:50;;;;;;;6.72;2.00;;;;;;;3.92;38.28;101975.28;8034318;28;20040;-65
2021/04/22 04:16:41;;;;;;;7.72;1.52;;;;;;;3.89;38.42;101984.03;8027411;28;20040;-64
2021/04/22 04:20:32;;;;;;;8.05;2.00;;;;;;;3.87;38.54;101979.72;8030507;28;20117;-65
2021/04/22 04:24:23;;;;;;;5.80;2.10;;;;;;;3.82;38.80;101979.81;8026232;28;20485;-65
2021/04/22 04:28:13;;;;;;;5.28;1.50;;;;;;;3.78;39.02;101970.38;8024985;28;20481;-64
2021/04/22 04:32:04;;;;;;;11.43;1.88;;;;;;;3.78;38.55;101993.75;8012792;28;20136;-64
2021/04/22 04:35:55;;;;;;;6.53;2.17;;;;;;;3.76;38.69;101988.63;8039417;28;20036;-66
2021/04/22 04:39:45;;;;;;;8.40;2.15;;;;;;;3.73;38.66;101987.81;8037596;28;20073;-66
2021/04/22 04:43:36;;;;;;;4.72;1.70;;;;;;;3.72;39.11;101993.91;8022048;28;20040;-65
2021/04/22 04:47:26;;;;;;;5.60;1.85;;;;;;;3.69;39.24;101999.16;8029198;28;20048;-66
2021/04/22 04:51:17;;;;;;;7.68;2.42;;;;;;;3.70;39.14;102001.72;8019792;28;20111;-66
2021/04/22 04:55:08;;;;;;;12.95;2.13;;;;;;;3.74;39.04;102011.16;8026484;28;20123;-66
2021/04/22 04:58:59;;;;;;;10.52;2.25;;;;;;;3.77;39.29;102002.47;8029547;28;20033;-66
2021/04/22 05:02:51;;;;;;;5.85;2.00;;;;;;;3.84;39.42;102021.38;8028794;28;20127;-65
2021/04/22 05:06:41;;;;;;;7.30;2.45;;;;;;;3.89;39.62;102020.41;8029579;28;20051;-65
2021/04/22 05:10:32;;;;;;;7.55;2.13;;;;;;;3.97;39.61;102030.66;8026591;28;20117;-65
2021/04/22 05:14:23;;;;;;;4.50;1.90;;;;;;;4.05;39.48;102031.34;8030137;28;20036;-65
2021/04/22 05:18:13;;;;;;;9.73;2.05;;;;;;;4.15;39.34;102019.88;8037152;28;20119;-65
2021/04/22 05:22:04;;;;;;;6.13;1.80;;;;;;;4.28;39.49;102014.38;8035304;28;20029;-65
2021/04/22 05:25:55;;;;;;;8.00;1.98;;;;;;;4.47;39.43;102025.25;8034007;28;20086;-65
2021/04/22 05:29:46;;;;;;;9.57;2.05;;;;;;;4.63;39.81;102024.00;8032228;28;20041;-65
2021/04/22 05:33:37;;;;;;;7.45;2.67;;;;;;;4.72;39.77;102028.13;8031417;28;20124;-65
2021/04/22 05:37:27;;;;;;;9.02;1.95;;;;;;;4.81;39.72;102032.28;8031241;28;20111;-65
2021/04/22 05:41:18;;;;;;;8.27;2.28;;;;;;;4.89;39.87;102031.19;8028659;28;20131;-65
2021/04/22 05:45:09;;;;;;;7.43;2.60;;;;;;;5.00;39.92;102034.41;8025910;28;20441;-64
2021/04/22 05:49:00;;;;;;;9.73;3.00;;;;;;;5.13;40.17;102038.41;8023221;28;20040;-65
2021/04/22 05:52:50;;;;;;;12.20;2.70;;;;;;;5.26;39.89;102032.91;8021879;28;20575;-65
2021/04/22 05:56:41;;;;;;;7.65;2.55;;;;;;;5.44;39.94;102053.28;8021221;28;20044;-65
2021/04/22 06:00:32;;;;;;;9.05;2.35;;;;;;;5.60;39.99;102050.22;8034707;28;20037;-65
2021/04/22 06:04:22;;;;;;;7.53;2.42;;;;;;;5.81;39.98;102061.00;8037784;28;20044;-65
2021/04/22 06:08:13;;;;;;;11.07;2.50;;;;;;;5.97;39.85;102055.28;8033222;28;20066;-65
2021/04/22 06:12:05;;;;;;;14.95;3.15;;;;;;;6.32;39.95;102071.69;8030992;28;20032;-65
2021/04/22 06:15:56;;;;;;;9.68;3.05;;;;;;;6.63;39.74;102074.25;8035345;28;20046;-65
2021/04/22 06:19:47;;;;;;;19.42;3.95;;;;;;;7.22;39.83;102082.81;8033357;28;20044;-65
2021/04/22 06:23:37;;;;;;;9.70;3.03;;;;;;;7.77;39.77;102081.81;8032688;28;20431;-65
2021/04/22 06:27:28;;;;;;;9.60;2.08;;;;;;;8.33;39.80;102085.84;8030919;28;20045;-65
2021/04/22 06:31:19;;;;;;;9.45;2.72;;;;;;;8.80;39.67;102097.13;8028412;28;20155;-65
2021/04/22 06:35:12;;;;;;;10.40;2.78;;;;;;;9.36;39.38;102090.56;8034871;28;20079;-65
2021/04/22 06:39:04;;;;;;;9.60;2.35;;;;;;;10.34;39.33;102099.31;8032752;28;20115;-65
2021/04/22 06:42:55;;;;;;;9.82;2.83;;;;;;;10.79;39.00;102091.09;8005381;28;20048;-65
2021/04/22 06:46:46;;;;;;;9.50;2.65;;;;;;;11.28;38.53;102105.34;8027150;28;20041;-65
2021/04/22 06:50:37;;;;;;;15.73;3.55;;;;;;;12.23;38.37;102109.22;8025415;28;20128;-65
2021/04/22 06:54:28;;;;;;;8.02;2.47;;;;;;;13.33;38.00;102104.81;8027447;28;20036;-65
2021/04/22 06:58:19;;;;;;;6.15;2.30;;;;;;;14.37;37.39;102108.19;8027707;28;20032;-65
2021/04/22 07:02:09;;;;;;;10.63;2.95;;;;;;;15.38;36.78;102105.19;8025610;28;20051;-65
2021/04/22 07:06:00;;;;;;;5.90;2.50;;;;;;;16.31;35.81;102105.78;8026146;28;20749;-65
2021/04/22 07:09:51;;;;;;;7.03;2.85;;;;;;;17.19;35.04;102109.13;8026930;28;20089;-65
2021/04/22 07:13:41;;;;;;;8.30;2.60;;;;;;;18.05;34.19;102099.81;8021220;28;20067;-66
2021/04/22 07:17:32;;;;;;;9.30;2.55;;;;;;;18.93;33.37;102108.69;8026498;28;20047;-65
2021/04/22 07:21:22;;;;;;;9.05;2.80;;;;;;;19.75;32.59;102105.28;8026896;28;20036;-66
2021/04/22 07:25:14;;;;;;;6.28;2.08;;;;;;;20.52;32.05;102112.78;8024695;28;20388;-66
2021/04/22 07:29:04;;;;;;;5.30;2.22;;;;;;;21.13;31.31;102103.63;8026493;28;20111;-66
2021/04/22 07:32:55;;;;;;;11.13;2.60;;;;;;;21.78;30.38;102112.72;8026168;28;20047;-66
2021/04/22 07:36:46;;;;;;;5.65;2.05;;;;;;;22.26;30.00;102122.44;8023849;28;20037;-66
2021/04/22 07:40:38;;;;;;;5.53;2.38;;;;;;;21.48;29.57;102120.94;8022755;28;20861;-66
2021/04/22 07:44:29;;;;;;;6.43;2.13;;;;;;;21.08;29.14;102121.06;8019577;28;20032;-66
2021/04/22 07:48:20;;;;;;;7.25;2.53;;;;;;;20.40;28.86;102130.72;8026769;28;20078;-66
2021/04/22 07:52:11;;;;;;;6.47;1.67;;;;;;;20.30;28.80;102132.53;8026944;28;20036;-66
2021/04/22 07:56:02;;;;;;;9.40;2.78;;;;;;;19.83;28.93;102133.94;8026582;28;20039;-65
2021/04/22 07:59:53;;;;;;;7.88;2.60;;;;;;;19.33;28.79;102136.41;8024493;28;20040;-65
2021/04/22 08:03:43;;;;;;;9.45;2.25;;;;;;;19.62;28.36;102133.94;8021863;28;20068;-65
2021/04/22 08:07:35;;;;;;;9.52;2.03;;;;;;;20.34;28.09;102133.09;8021700;28;20040;-65
2021/04/22 08:11:26;;;;;;;5.15;1.77;;;;;;;20.80;27.77;102133.38;8020000;28;20045;-66
2021/04/22 08:15:17;;;;;;;6.80;2.00;;;;;;;20.71;27.56;102143.09;8021451;28;20082;-65
2021/04/22 08:19:08;;;;;;;6.85;2.05;;;;;;;21.29;27.69;102139.69;8022630;28;20574;-65
2021/04/22 08:23:00;;;;;;;6.20;1.60;;;;;;;21.82;26.90;102132.84;8023492;28;20047;-65
2021/04/22 08:26:51;;;;;;;7.55;2.05;;;;;;;22.50;26.56;102131.66;8021753;28;20449;-66
2021/04/22 08:30:45;;;;;;;5.68;2.10;;;;;;;23.42;25.89;102129.59;8023088;28;20592;-66
2021/04/22 08:34:36;;;;;;;10.98;2.28;;;;;;;24.13;25.07;102129.44;8020746;28;21109;-66
2021/04/22 08:38:26;;;;;;;7.65;1.95;;;;;;;23.78;25.09;102126.91;8020564;28;20684;-66
2021/04/22 08:42:19;;;;;;;5.63;2.28;;;;;;;23.57;24.90;102127.22;8020677;28;20029;-66
2021/04/22 08:46:10;;;;;;;6.22;2.40;;;;;;;22.88;24.91;102135.94;8023329;28;20581;-66
2021/04/22 08:50:04;;;;;;;6.20;2.08;;;;;;;22.28;24.98;102134.69;8021548;28;20053;-65
2021/04/22 08:53:55;;;;;;;8.48;2.40;;;;;;;21.51;25.17;102132.19;8022151;28;20119;-66
2021/04/22 08:57:46;;;;;;;3.00;1.55;;;;;;;20.82;25.54;102138.59;8019485;28;20650;-66
2021/04/22 09:01:38;;;;;;;5.00;2.00;;;;;;;20.31;25.65;102142.19;8021573;28;20622;-65
2021/04/22 09:05:28;;;;;;;4.60;1.77;;;;;;;20.21;25.88;102146.66;8023661;28;20040;-65
2021/04/22 09:09:19;;;;;;;7.85;1.83;;;;;;;20.59;26.02;102146.00;8022749;28;20564;-65
2021/04/22 09:13:11;;;;;;;5.65;2.08;;;;;;;20.99;25.10;102153.97;8016807;28;20028;-65
2021/04/22 09:17:02;;;;;;;3.67;1.67;;;;;;;20.99;25.47;102144.13;8020780;28;20078;-66
2021/04/22 09:20:56;;;;;;;5.05;1.77;;;;;;;21.31;24.91;102141.22;8019810;28;20120;-65
2021/04/22 09:24:46;;;;;;;5.65;2.30;;;;;;;20.98;25.32;102147.75;8023960;28;20528;-65
2021/04/22 09:28:40;;;;;;;7.43;1.63;;;;;;;20.43;25.68;102132.28;8019210;28;20096;-66
2021/04/22 09:32:32;;;;;;;7.15;2.08;;;;;;;19.93;26.02;102139.38;8019004;28;20033;-66
2021/04/22 09:36:22;;;;;;;5.43;1.90;;;;;;;19.34;25.43;102138.09;8021376;28;20415;-65
2021/04/22 09:40:16;;;;;;;5.63;2.28;;;;;;;18.81;25.44;102142.44;8014332;28;20031;-65
2021/04/22 09:44:10;;;;;;;4.90;2.17;;;;;;;18.26;25.46;102131.84;8012498;28;20059;-65
2021/04/22 09:48:12;;;;;;;11.32;2.45;;;;;;;17.83;25.69;102137.00;8020699;28;20086;-65
2021/04/22 09:52:07;;;;;;;5.75;2.00;;;;;;;17.39;26.08;102141.19;8017629;28;20028;-65
2021/04/22 09:56:09;;;;;;;6.20;1.77;;;;;;;16.99;25.93;102145.94;8021353;28;20036;-65
2021/04/22 10:00:04;;;;;;;5.25;1.50;;;;;;;16.64;26.30;102145.81;8022809;28;20102;-65
2021/04/22 10:03:57;;;;;;;4.80;1.88;;;;;;;16.34;26.53;102134.72;8020544;28;20721;-65
2021/04/22 10:07:48;;;;;;;5.50;1.90;;;;;;;16.10;26.77;102131.13;8022288;28;20569;-65
2021/04/22 10:11:44;;;;;;;12.50;2.00;;;;;;;15.85;26.69;102137.25;8018930;28;20039;-65
2021/04/22 10:15:36;;;;;;;9.73;1.88;;;;;;;15.68;26.91;102140.19;8020699;28;21273;-65
2021/04/22 10:19:26;;;;;;;8.65;2.47;;;;;;;15.57;26.89;102143.59;8022598;28;20050;-65
2021/04/22 10:23:18;;;;;;;9.82;2.00;;;;;;;15.40;27.23;102135.06;8016930;28;20408;-65
2021/04/22 10:27:09;;;;;;;13.15;2.13;;;;;;;15.32;27.17;102135.56;8019587;28;20511;-65
2021/04/22 10:31:00;;;;;;;14.27;2.30;;;;;;;15.32;27.24;102134.72;8022470;28;20040;-65
2021/04/22 10:34:51;;;;;;;3.72;1.67;;;;;;;15.27;27.33;102140.28;8021212;28;20093;-65
2021/04/22 10:38:42;;;;;;;4.45;1.70;;;;;;;15.28;27.51;102155.22;8021531;28;20037;-65
2021/04/22 10:42:35;;;;;;;10.23;2.65;;;;;;;15.22;27.40;102137.94;8020219;28;20032;-65
2021/04/22 10:46:28;;;;;;;5.60;2.22;;;;;;;15.21;27.55;102128.28;8018782;28;20041;-65
2021/04/22 10:50:20;;;;;;;7.43;2.45;;;;;;;15.24;27.46;102135.19;8021180;28;20472;-65
2021/04/22 10:54:11;;;;;;;5.05;2.20;;;;;;;15.18;27.48;102133.78;8022259;28;20032;-65
2021/04/22 10:58:25;;;;;;;6.68;1.75;;;;;;;15.12;27.62;102134.22;8020883;28;20035;-65
2021/04/22 11:02:22;;;;;;;5.45;1.75;;;;;;;15.08;27.58;102123.94;8007812;28;20064;-65
2021/04/22 11:06:18;;;;;;;10.02;2.55;;;;;;;15.01;27.72;102128.75;8025199;28;20138;-65
2021/04/22 11:10:13;;;;;;;5.30;2.10;;;;;;;14.94;27.81;102116.88;8024517;28;20044;-65
2021/04/22 11:14:14;;;;;;;3.72;1.58;;;;;;;14.88;27.64;102124.38;8025321;28;20094;-65
2021/04/22 11:18:12;;;;;;;6.15;2.17;;;;;;;14.80;27.83;102127.47;8024539;28;20393;-65
2021/04/22 11:22:15;;;;;;;6.70;2.20;;;;;;;14.67;27.48;102122.13;8024124;28;20043;-65
2021/04/22 11:26:18;;;;;;;4.07;1.90;;;;;;;14.56;27.74;102132.53;8028335;28;20127;-65
2021/04/22 11:30:10;;;;;;;12.27;2.53;;;;;;;14.45;27.54;102126.25;8025984;28;20132;-65
2021/04/22 11:34:05;;;;;;;6.53;1.50;;;;;;;14.38;27.84;102130.19;8025851;28;20412;-65
2021/04/22 11:38:10;;;;;;;12.55;1.70;;;;;;;14.32;27.83;102129.63;8022460;28;20071;-65
2021/04/22 11:42:02;;;;;;;8.32;2.03;;;;;;;14.24;28.11;102118.66;8020244;28;20030;-65
2021/04/22 11:45:55;;;;;;;4.45;1.52;;;;;;;14.23;27.97;102121.41;8024393;28;20034;-65
2021/04/22 11:49:48;;;;;;;5.38;2.25;;;;;;;14.17;28.14;102119.16;8026817;28;20032;-65
2021/04/22 11:53:44;;;;;;;5.80;2.42;;;;;;;14.17;28.02;102119.16;8025531;28;20021;-65
2021/04/22 11:57:35;;;;;;;7.93;2.63;;;;;;;14.15;28.07;102118.38;8024812;28;20090;-64
2021/04/22 12:01:26;;;;;;;5.85;2.10;;;;;;;14.12;28.07;102121.22;8023432;28;20037;-64
2021/04/22 12:05:19;;;;;;;7.45;1.98;;;;;;;14.02;28.06;102110.34;8022157;28;20744;-65
2021/04/22 12:09:09;;;;;;;6.55;1.92;;;;;;;13.99;27.84;102125.53;8023256;28;20052;-65
2021/04/22 12:13:11;;;;;;;4.93;2.00;;;;;;;14.00;28.22;102124.59;8022354;28;20043;-65
2021/04/22 12:17:02;;;;;;;8.45;2.67;;;;;;;13.96;28.51;102121.31;8024514;28;20035;-65
2021/04/22 12:21:06;;;;;;;3.83;1.85;;;;;;;13.95;28.37;102124.88;8022300;28;20049;-65
2021/04/22 12:24:58;;;;;;;5.10;1.90;;;;;;;13.90;28.23;102119.03;8023482;28;20035;-65
2021/04/22 12:29:00;;;;;;;7.10;2.67;;;;;;;13.87;28.27;102119.22;8023451;28;20029;-65
2021/04/22 12:32:54;;;;;;;6.35;2.13;;;;;;;13.80;28.45;102109.97;8023878;28;20040;-65
2021/04/22 12:36:56;;;;;;;5.50;2.08;;;;;;;13.80;28.80;102116.06;8020344;28;20033;-64
2021/04/22 12:41:07;;;;;;;4.03;2.00;;;;;;;13.79;28.73;102121.47;8022272;28;20040;-65
2021/04/22 12:45:16;;;;;;;14.23;3.22;;;;;;;13.73;28.76;102120.03;8024791;28;20392;-65
2021/04/22 12:49:06;;;;;;;11.55;2.50;;;;;;;13.65;28.75;102119.66;8022857;28;20476;-65
2021/04/22 12:53:17;;;;;;;7.57;2.53;;;;;;;13.62;28.76;102109.28;8022879;28;20044;-65
2021/04/22 12:57:12;;;;;;;7.97;2.50;;;;;;;13.56;28.71;102108.75;8023455;28;20036;-65
2021/04/22 13:01:12;;;;;;;5.80;2.30;;;;;;;13.56;29.00;102112.25;8019151;28;20037;-65
2021/04/22 13:05:06;;;;;;;9.30;2.35;;;;;;;13.60;28.87;102100.56;8023259;28;20549;-64
2021/04/22 13:09:00;;;;;;;8.43;2.65;;;;;;;13.57;28.99;102090.22;8022259;28;20046;-65
2021/04/22 13:12:52;;;;;;;7.10;2.58;;;;;;;13.53;28.86;102096.59;8021829;28;20041;-65
2021/04/22 13:16:50;;;;;;;9.70;2.60;;;;;;;13.55;28.93;102096.53;8024375;28;20055;-65
2021/04/22 13:20:45;;;;;;;4.88;2.22;;;;;;;13.54;28.87;102095.69;8025120;28;20036;-65
2021/04/22 13:24:37;;;;;;;10.65;3.45;;;;;;;13.53;29.01;102086.06;8021489;28;20051;-65
2021/04/22 13:28:29;;;;;;;9.43;2.95;;;;;;;13.47;29.07;102086.38;8022813;28;20937;-65
2021/04/22 13:32:22;;;;;;;20.85;6.32;;;;;;;13.48;29.03;102079.31;8021779;28;20045;-65
2021/04/22 13:36:15;;;;;;;6.05;2.70;;;;;;;13.47;28.90;102093.47;8021661;28;20052;-65
2021/04/22 13:40:13;;;;;;;7.13;2.63;;;;;;;13.43;29.25;102083.06;8018939;28;20024;-65
2021/04/22 13:44:08;;;;;;;3.60;2.20;;;;;;;13.39;29.12;102085.97;8009532;28;20025;-65
2021/04/22 13:48:06;;;;;;;7.25;2.67;;;;;;;13.31;29.05;102096.97;8020266;28;20045;-65
2021/04/22 13:52:07;;;;;;;6.72;2.60;;;;;;;13.30;29.00;102097.09;8017521;28;20067;-65
2021/04/22 13:55:58;;;;;;;6.97;2.30;;;;;;;13.24;29.01;102100.91;8019940;28;20132;-65
2021/04/22 14:00:10;;;;;;;7.22;2.30;;;;;;;13.20;29.49;102090.63;8019577;28;20036;-65
2021/04/22 14:04:06;;;;;;;9.95;2.72;;;;;;;13.17;29.30;102090.81;8020398;28;20596;-64
2021/04/22 14:07:57;;;;;;;4.03;1.90;;;;;;;13.24;29.49;102094.78;8020199;28;20039;-69
2021/04/22 14:11:47;;;;;;;5.40;2.47;;;;;;;13.25;29.39;102091.22;8016252;28;20049;-65
2021/04/22 14:15:38;;;;;;;5.40;2.28;;;;;;;13.31;29.34;102080.28;8020993;28;20687;-65
2021/04/22 14:19:32;;;;;;;7.47;2.30;;;;;;;13.29;29.58;102085.69;8020064;28;20424;-65
2021/04/22 14:23:23;;;;;;;5.40;2.33;;;;;;;13.27;29.54;102078.78;8018231;28;20017;-65
2021/04/22 14:27:17;;;;;;;8.65;2.25;;;;;;;13.27;29.40;102084.91;8021577;28;20124;-65
2021/04/22 14:31:07;;;;;;;8.07;2.47;;;;;;;13.27;29.19;102076.97;8022286;28;20059;-66
2021/04/22 14:34:58;;;;;;;3.15;1.90;;;;;;;13.26;29.42;102066.53;8022721;28;20173;-66
2021/04/22 14:38:49;;;;;;;9.05;2.90;;;;;;;13.22;29.41;102086.13;8025041;28;20423;-70
2021/04/22 14:42:40;;;;;;;4.13;2.25;;;;;;;13.15;29.50;102063.66;8024178;28;20768;-71
2021/04/22 14:46:31;;;;;;;3.60;2.13;;;;;;;13.12;29.52;102077.03;8029289;28;20032;-65
2021/04/22 14:50:22;;;;;;;3.70;2.17;;;;;;;13.07;29.60;102077.28;8043351;28;20120;-65
2021/04/22 14:54:13;;;;;;;12.02;2.80;;;;;;;13.04;29.71;102069.56;8026852;28;20028;-66
2021/04/22 14:58:04;;;;;;;6.97;2.72;;;;;;;13.01;29.54;102068.91;8029132;28;20078;-65
2021/04/22 15:01:54;;;;;;;10.80;2.60;;;;;;;12.96;29.35;102070.00;8024575;28;20082;-65
2021/04/22 15:05:45;;;;;;;4.78;2.47;;;;;;;12.94;29.54;102077.16;8026128;28;20044;-65
2021/04/22 15:09:36;;;;;;;9.15;2.75;;;;;;;12.91;29.97;102081.75;8028026;28;20085;-65
2021/04/22 15:13:32;;;;;;;7.07;2.85;;;;;;;12.86;29.68;102073.25;8023948;28;20048;-66
2021/04/22 15:17:22;;;;;;;7.60;2.83;;;;;;;12.82;29.64;102074.34;8027453;28;20543;-65
2021/04/22 15:21:13;;;;;;;4.25;2.33;;;;;;;12.81;29.58;102077.91;8026220;28;20761;-65
2021/04/22 15:25:04;;;;;;;8.75;3.25;;;;;;;12.73;29.71;102073.06;8026859;28;20544;-65
2021/04/22 15:28:57;;;;;;;9.05;2.33;;;;;;;12.78;29.87;102078.09;8024623;28;20120;-65
2021/04/22 15:32:48;;;;;;;3.35;1.90;;;;;;;12.78;29.90;102080.72;8022510;28;20050;-65
2021/04/22 15:36:39;;;;;;;6.07;2.30;;;;;;;12.76;29.92;102072.94;8009021;28;20480;-65
2021/04/22 15:40:31;;;;;;;9.50;2.25;;;;;;;12.71;29.76;102064.44;8021898;28;20101;-65
2021/04/22 15:44:23;;;;;;;5.18;2.38;;;;;;;12.69;29.78;102071.56;8024000;28;20544;-65
2021/04/22 15:48:13;;;;;;;3.25;2.13;;;;;;;12.66;29.96;102068.25;8023729;28;20062;-65
2021/04/22 15:52:04;;;;;;;6.30;2.30;;;;;;;12.64;29.93;102083.31;8024064;28;20032;-65
2021/04/22 15:55:55;;;;;;;5.20;2.53;;;;;;;12.59;30.03;102075.66;8024900;28;20135;-65
2021/04/22 15:59:45;;;;;;;5.15;2.67;;;;;;;12.55;30.04;102076.72;8014897;28;20024;-65
2021/04/22 16:03:36;;;;;;;6.32;2.92;;;;;;;12.53;30.05;102078.59;8023935;28;20046;-66
2021/04/22 16:07:26;;;;;;;6.85;2.83;;;;;;;12.48;30.00;102067.44;8024164;28;20037;-65
2021/04/22 16:11:17;;;;;;;5.75;2.20;;;;;;;12.49;30.00;102071.78;8020533;28;20024;-66
2021/04/22 16:15:10;;;;;;;5.35;2.20;;;;;;;12.50;29.97;102076.97;8022636;28;20105;-66
2021/04/22 16:19:01;;;;;;;11.93;2.50;;;;;;;12.47;29.70;102084.22;8025772;28;20115;-66
2021/04/22 16:22:52;;;;;;;9.13;2.63;;;;;;;12.43;30.05;102072.13;8022524;28;20047;-68
2021/04/22 16:26:42;;;;;;;4.90;2.58;;;;;;;12.43;30.02;102074.78;8003637;28;20082;-66
2021/04/22 16:30:33;;;;;;;6.22;2.35;;;;;;;12.37;30.21;102077.72;8023030;28;20045;-65
2021/04/22 16:34:26;;;;;;;5.20;2.40;;;;;;;12.34;30.23;102078.75;8023512;28;20403;-66
2021/04/22 16:38:17;;;;;;;5.43;2.25;;;;;;;12.30;30.22;102073.72;8025031;28;20050;-66
2021/04/22 16:42:07;;;;;;;5.93;2.13;;;;;;;12.29;30.30;102080.78;8021962;28;20037;-66
2021/04/22 16:45:58;;;;;;;4.80;2.53;;;;;;;12.25;30.19;102078.41;8024084;28;20049;-66
2021/04/22 16:49:49;;;;;;;5.10;2.33;;;;;;;12.25;30.13;102088.94;8023332;28;20696;-65
2021/04/22 16:53:39;;;;;;;8.00;2.58;;;;;;;12.18;30.30;102079.66;8020042;28;20041;-70
2021/04/22 16:57:30;;;;;;;8.93;2.97;;;;;;;12.16;30.23;102087.63;8017330;28;20030;-71
2021/04/22 17:01:21;;;;;;;6.70;2.03;;;;;;;12.12;30.15;102078.19;8021658;28;20591;-71
2021/04/22 17:05:13;;;;;;;5.43;2.13;;;;;;;12.12;30.39;102082.63;8022321;28;20043;-66
2021/04/22 17:09:05;;;;;;;9.23;2.13;;;;;;;12.10;30.48;102081.88;8022311;28;20036;-65
2021/04/22 17:12:57;;;;;;;6.07;2.17;;;;;;;12.06;30.43;102082.00;8020349;28;20039;-66
2021/04/22 17:16:47;;;;;;;5.50;2.20;;;;;;;12.03;30.45;102078.69;8023160;28;20041;-65
2021/04/22 17:20:38;;;;;;;5.25;2.13;;;;;;;11.94;30.48;102072.13;8025480;28;20032;-65
2021/04/22 17:24:32;;;;;;;10.38;3.00;;;;;;;11.96;30.25;102082.59;8023331;28;20680;-65
2021/04/22 17:28:23;;;;;;;6.57;2.38;;;;;;;11.93;30.41;102082.75;8023306;28;20031;-65
2021/04/22 17:32:14;;;;;;;4.55;1.95;;;;;;;11.89;30.54;102082.06;8021885;28;20151;-66
2021/04/22 17:36:05;;;;;;;5.88;1.83;;;;;;;11.86;30.54;102089.25;8021931;28;20626;-70
2021/04/22 17:39:56;;;;;;;6.60;2.33;;;;;;;11.80;30.67;102086.97;8024745;28;20427;-69
2021/04/22 17:43:47;;;;;;;5.65;2.30;;;;;;;11.78;30.72;102088.78;8022914;28;20554;-68
2021/04/22 17:47:38;;;;;;;5.72;1.98;;;;;;;11.72;30.65;102084.72;8023249;28;20032;-72
2021/04/22 17:51:30;;;;;;;5.03;2.05;;;;;;;11.68;30.76;102085.81;8014303;28;20024;-66
2021/04/22 17:55:21;;;;;;;6.80;2.53;;;;;;;11.62;30.88;102091.38;8021989;28;20031;-68
2021/04/22 17:59:12;;;;;;;4.20;2.10;;;;;;;11.59;31.16;102095.03;8021905;28;20532;-68
2021/04/22 18:03:04;;;;;;;8.48;2.28;;;;;;;11.59;30.98;102100.28;8022287;28;20056;-69